Flight Track Log - Related Links

Times and Time Zones

All times are in EDT time to prevent confusion due to time zone crossing. See the AWE66 flight status page for this flight to view local times or setup timezone preferences in your user account.

Time Position Orientation Groundspeed Altitude Reporting Facility
EDT Latitude Longitude Course Direction KTS MPH feet Rate Location/Type
Fri 02:28:09 AM 32.7500 -117.2167 295° West 179 206 1,300  Level Southern California TRACON
Fri 02:29:25 AM 32.7758 -117.2833 295° West 201 231 2,800 1,664 Climbing Los Angeles Center
Fri 02:30:26 AM 32.7397 -117.3378 232° Southwest 244 281 5,100 2,213 Climbing Los Angeles Center
Fri 02:31:27 AM 32.6731 -117.2864 147° Southeast 283 326 7,300 2,557 Climbing Los Angeles Center
Fri 02:32:28 AM 32.6417 -117.1811 109° East 301 346 10,300 2,164 Climbing Los Angeles Center
Fri 02:33:29 AM 32.6244 -117.0781 101° East 316 364 11,700 1,339 Climbing Los Angeles Center
Fri 02:34:29 AM 32.6100 -116.9614 98° East 350 403 13,000 1,488 Climbing Los Angeles Center
Fri 02:35:30 AM 32.6242 -116.8347 82° East 387 445 14,700 1,721 Climbing Los Angeles Center
Fri 02:36:31 AM 32.6367 -116.7056 83° East 395 455 16,500 1,623 Climbing Los Angeles Center
Fri 02:37:32 AM 32.6489 -116.5742 84° East 402 463 18,000 1,537 Climbing Los Angeles Center
Fri 02:38:32 AM 32.6631 -116.4394 83° East 412 474 19,600 1,488 Climbing Los Angeles Center
Fri 02:39:33 AM 32.6744 -116.3044 84° East 419 482 21,000 1,131 Climbing Los Angeles Center
Fri 02:40:34 AM 32.6881 -116.1667 83° East 425 489 21,900 984 Climbing Los Angeles Center
Fri 02:41:35 AM 32.7014 -116.0244 84° East 435 501 23,000 1,190 Climbing Los Angeles Center
Fri 02:42:35 AM 32.7172 -115.8531 84° East 437 503 24,300 1,140 Climbing Los Angeles Center
Fri 02:43:36 AM 32.7308 -115.7092 84° East 440 506 25,300 984 Climbing Los Angeles Center
Fri 02:44:37 AM 32.7439 -115.5639 84° East 444 511 26,300 992 Climbing Los Angeles Center
Fri 02:45:37 AM 32.7519 -115.4156 86° East 451 519 27,300 992 Climbing Los Angeles Center
Fri 02:46:38 AM 32.7542 -115.2675 89° East 450 518 28,300 1,033 Climbing Los Angeles Center
Fri 02:47:39 AM 32.7567 -115.1183 89° East 453 521 29,400 984 Climbing Los Angeles Center
Fri 02:48:40 AM 32.7603 -114.9708 88° East 449 517 30,300 992 Climbing Los Angeles Center
Fri 02:49:40 AM 32.7625 -114.8217 89° East 451 519 31,400 992 Climbing Los Angeles Center
Fri 02:50:41 AM 32.7683 -114.6753 87° East 448 516 32,300 787 Climbing Los Angeles Center
Fri 02:51:42 AM 32.7681 -114.5308 90° East 441 507 33,000 298 Climbing Los Angeles Center
Fri 02:52:42 AM 32.7692 -114.3814 89° East 449 517 32,900 -50 Descending Los Angeles Center
Fri 02:53:43 AM 32.7742 -114.2278 88° East 463 533 32,900  Level Los Angeles Center
Fri 02:54:43 AM 32.7772 -114.0756 89° East 463 533 32,900  Level Los Angeles Center
Fri 02:55:44 AM 32.7828 -113.9253 87° East 457 526 32,900  Level Los Angeles Center
Fri 02:56:45 AM 32.8050 -113.7764 80° East 458 527 32,900  Level Los Angeles Center
Fri 02:57:45 AM 32.8272 -113.6278 80° East 459 528 32,900 58 Level Los Angeles Center
Fri 02:58:29 AM 32.8417 -113.5175 81° East 460 529 33,000 58 Climbing Albuquerque Center
Fri 02:59:29 AM 32.8633 -113.3675 80° East 459 528 33,000  Level Albuquerque Center
Fri 03:00:29 AM 32.8842 -113.2167 81° East 459 528 33,000  Level Albuquerque Center
Fri 03:01:30 AM 32.9050 -113.0675 81° East 457 526 33,000  Level Albuquerque Center
Fri 03:02:30 AM 32.9244 -112.9186 81° East 454 522 33,000 -50 Level Albuquerque Center
Fri 03:03:30 AM 32.9450 -112.7711 81° East 451 519 32,900 -50 Descending Albuquerque Center
Fri 03:04:31 AM 32.9939 -112.6311 67° East 458 527 32,900  Level Albuquerque Center
Fri 03:05:31 AM 33.0689 -112.5089 54° Northeast 459 528 32,900 50 Level Albuquerque Center
Fri 03:06:31 AM 33.1522 -112.3872 51° Northeast 464 534 33,000 50 Climbing Albuquerque Center
Fri 03:07:32 AM 33.2308 -112.2714 51° Northeast 462 532 33,000  Level Albuquerque Center
Fri 03:08:32 AM 33.3108 -112.1511 51° Northeast 465 535 33,000  Level Albuquerque Center
Fri 03:09:33 AM 33.3914 -112.0322 51° Northeast 463 533 33,000  Level Albuquerque Center
Fri 03:10:33 AM 33.4694 -111.8731 60° Northeast 465 535 33,000 50 Level Albuquerque Center
Fri 03:11:33 AM 33.5200 -111.7322 67° East 466 536 33,100  Climbing Albuquerque Center
Fri 03:12:34 AM 33.5711 -111.5928 66° East 463 533 33,000 -50 Descending Albuquerque Center
Fri 03:13:34 AM 33.6206 -111.4544 67° East 458 527 33,000  Level Albuquerque Center
Fri 03:14:34 AM 33.6706 -111.3153 67° East 458 527 33,000  Level Albuquerque Center
Fri 03:15:35 AM 33.7208 -111.1764 66° East 458 527 33,000  Level Albuquerque Center
Fri 03:16:35 AM 33.7717 -111.0361 66° East 460 529 33,000  Level Albuquerque Center
Fri 03:17:35 AM 33.8203 -110.8956 67° East 459 528 33,000  Level Albuquerque Center
Fri 03:18:36 AM 33.8711 -110.7564 66° East 457 526 33,000  Level Albuquerque Center
Fri 03:19:36 AM 33.9194 -110.6172 67° East 454 522 33,000  Level Albuquerque Center
Fri 03:20:36 AM 33.9683 -110.4772 67° East 455 524 33,000  Level Albuquerque Center
Fri 03:21:37 AM 34.0217 -110.3236 67° East 457 526 33,000  Level Albuquerque Center
Fri 03:22:37 AM 34.0692 -110.1883 67° East 457 526 33,000  Level Albuquerque Center
Fri 03:23:37 AM 34.1147 -110.0519 68° East 458 527 33,000  Level Albuquerque Center
Fri 03:24:38 AM 34.1706 -109.8953 67° East 456 525 33,000  Level Albuquerque Center
Fri 03:25:38 AM 34.2164 -109.7592 68° East 457 526 33,000  Level Albuquerque Center
Fri 03:26:38 AM 34.2628 -109.6211 68° East 461 531 33,000  Level Albuquerque Center
Fri 03:27:39 AM 34.3167 -109.4625 68° East 459 528 33,000  Level Albuquerque Center
Fri 03:28:39 AM 34.3617 -109.3289 68° East 454 522 33,000  Level Albuquerque Center
Fri 03:29:39 AM 34.4064 -109.1922 68° East 455 524 33,000  Level Albuquerque Center
Fri 03:30:40 AM 34.4556 -109.0339 69° East 452 520 33,000  Level Albuquerque Center
Fri 03:31:40 AM 34.4931 -108.8944 72° East 454 522 33,000  Level Albuquerque Center
Fri 03:32:40 AM 34.5308 -108.7567 72° East 453 521 33,000  Level Albuquerque Center
Fri 03:33:40 AM 34.5686 -108.6167 72° East 455 524 33,000  Level Albuquerque Center
Fri 03:34:41 AM 34.6133 -108.4564 71° East 452 520 33,000  Level Albuquerque Center
Fri 03:35:41 AM 34.6461 -108.3339 72° East 455 524 33,000  Level Albuquerque Center
Fri 03:36:41 AM 34.6853 -108.1875 72° East 456 525 33,000  Level Albuquerque Center
Fri 03:37:42 AM 34.7239 -108.0425 72° East 454 522 33,000  Level Albuquerque Center
Fri 03:38:42 AM 34.7636 -107.8964 72° East 455 524 33,000  Level Albuquerque Center
Fri 03:39:42 AM 34.8022 -107.7508 72° East 455 524 33,000  Level Albuquerque Center
Fri 03:40:42 AM 34.8478 -107.5753 72° East 454 522 33,000  Level Albuquerque Center
Fri 03:41:43 AM 34.8867 -107.4303 72° East 453 521 33,000  Level Albuquerque Center
Fri 03:42:43 AM 34.9244 -107.2825 73° East 455 524 33,000  Level Albuquerque Center
Fri 03:43:43 AM 34.9589 -107.1522 72° East 455 524 33,000  Level Albuquerque Center
Fri 03:44:44 AM 35.0011 -106.9894 72° East 452 520 33,000  Level Albuquerque Center
Fri 03:45:44 AM 35.0364 -106.8503 73° East 450 518 33,000  Level Albuquerque Center
Fri 03:46:44 AM 35.0814 -106.7139 68° East 453 521 33,000  Level Albuquerque Center
Fri 03:47:44 AM 35.1428 -106.5564 64° Northeast 457 526 33,000  Level Albuquerque Center
Fri 03:48:45 AM 35.1878 -106.4331 66° East 458 527 33,000  Level Albuquerque Center
Fri 03:49:45 AM 35.2392 -106.2928 66° East 454 522 33,000  Level Albuquerque Center
Fri 03:50:45 AM 35.2972 -106.1342 66° East 448 516 33,000  Level Albuquerque Center
Fri 03:51:46 AM 35.3483 -105.9931 66° East 450 518 33,000  Level Albuquerque Center
Fri 03:52:46 AM 35.4031 -105.8517 65° Northeast 454 522 33,000  Level Albuquerque Center
Fri 03:53:46 AM 35.4528 -105.7097 67° East 451 519 33,000  Level Albuquerque Center
Fri 03:54:46 AM 35.4981 -105.5897 65° Northeast 456 525 33,000  Level Albuquerque Center
Fri 03:55:47 AM 35.5456 -105.4475 68° East 447 514 33,000  Level Albuquerque Center
Fri 03:56:47 AM 35.5969 -105.3039 66° East 452 520 33,000  Level Albuquerque Center
Fri 03:57:47 AM 35.6464 -105.1564 68° East 459 528 33,000  Level Albuquerque Center
Fri 03:58:48 AM 35.6647 -105.0031 82° East 453 521 33,000  Level Albuquerque Center
Fri 03:59:48 AM 35.6739 -104.8478 86° East 451 519 33,000  Level Albuquerque Center
Fri 04:00:48 AM 35.6817 -104.6928 86° East 449 517 33,000  Level Albuquerque Center
Fri 04:01:48 AM 35.6906 -104.5358 86° East 452 520 33,000  Level Albuquerque Center
Fri 04:02:49 AM 35.6981 -104.3781 87° East 455 524 33,000  Level Albuquerque Center
Fri 04:03:49 AM 35.7064 -104.2214 86° East 454 522 33,000  Level Albuquerque Center
Fri 04:04:49 AM 35.7133 -104.0664 87° East 449 517 33,000  Level Albuquerque Center
Fri 04:05:50 AM 35.7203 -103.9122 87° East 446 513 33,000  Level Albuquerque Center
Fri 04:06:50 AM 35.7267 -103.7578 87° East 446 513 33,000  Level Albuquerque Center
Fri 04:07:50 AM 35.7342 -103.6044 87° East 445 512 33,000  Level Albuquerque Center
Fri 04:08:50 AM 35.7417 -103.4500 87° East 447 514 33,000  Level Albuquerque Center
Fri 04:09:51 AM 35.7464 -103.2953 88° East 447 514 33,000  Level Albuquerque Center
Fri 04:10:51 AM 35.7531 -103.1425 87° East 445 512 33,000  Level Albuquerque Center
Fri 04:11:51 AM 35.7592 -102.9878 87° East 447 514 33,000  Level Albuquerque Center
Fri 04:12:51 AM 35.7633 -102.8544 88° East 446 513 33,000  Level Albuquerque Center
Fri 04:13:52 AM 35.7694 -102.7036 87° East 443 510 33,000  Level Albuquerque Center
Fri 04:14:52 AM 35.7744 -102.5511 88° East 445 512 33,000  Level Albuquerque Center
Fri 04:15:52 AM 35.7783 -102.3986 88° East 445 512 33,000  Level Albuquerque Center
Fri 04:16:52 AM 35.7842 -102.2456 87° East 446 513 33,000  Level Albuquerque Center
Fri 04:17:53 AM 35.7892 -102.0925 88° East 447 514 33,000 149 Level Albuquerque Center
Fri 04:18:53 AM 35.7942 -101.9394 88° East 446 513 33,300 650 Climbing Albuquerque Center
Fri 04:19:53 AM 35.7972 -101.7856 89° East 447 514 34,300 850 Climbing Albuquerque Center
Fri 04:20:53 AM 35.8022 -101.6344 88° East 443 510 35,000 347 Climbing Albuquerque Center
Fri 04:21:54 AM 35.8061 -101.4808 88° East 445 512 35,000  Level Albuquerque Center
Fri 04:22:54 AM 35.8303 -101.3286 79° East 450 518 35,000  Level Albuquerque Center
Fri 04:23:54 AM 35.8786 -101.1867 67° East 449 517 35,000  Level Albuquerque Center
Fri 04:24:54 AM 35.9297 -101.0475 66° East 448 516 35,000  Level Albuquerque Center
Fri 04:25:54 AM 35.9858 -100.8914 66° East 447 514 35,000  Level Albuquerque Center
Fri 04:26:55 AM 36.0378 -100.7481 66° East 452 520 35,000  Level Albuquerque Center
Fri 04:27:55 AM 36.0872 -100.6078 66° East 447 514 35,000  Level Albuquerque Center
Fri 04:28:50 AM 36.1281 -100.4947 66° East 449 517 35,000  Level Kansas City Center
Fri 04:29:51 AM 36.1781 -100.3525 66° East 449 517 35,000  Level Kansas City Center
Fri 04:30:51 AM 36.2278 -100.2103 67° East 448 516 35,000  Level Kansas City Center
Fri 04:31:52 AM 36.2783 -100.0664 66° East 453 521 35,000  Level Kansas City Center
Fri 04:32:52 AM 36.3292 -99.9236 66° East 452 520 35,000  Level Kansas City Center
Fri 04:33:53 AM 36.3631 -99.7708 75° East 458 527 35,000  Level Kansas City Center
Fri 04:34:54 AM 36.3864 -99.6142 79° East 459 528 35,000  Level Kansas City Center
Fri 04:35:54 AM 36.4106 -99.4594 79° East 455 524 35,000  Level Kansas City Center
Fri 04:36:55 AM 36.4356 -99.3064 78° East 450 518 35,000  Level Kansas City Center
Fri 04:37:55 AM 36.4597 -99.1514 79° East 451 519 35,000  Level Kansas City Center
Fri 04:38:56 AM 36.4828 -98.9961 79° East 452 520 35,000  Level Kansas City Center
Fri 04:39:56 AM 36.5058 -98.8428 79° East 450 518 35,000  Level Kansas City Center
Fri 04:40:57 AM 36.5292 -98.6892 79° East 449 517 35,000  Level Kansas City Center
Fri 04:41:57 AM 36.5517 -98.5353 80° East 451 519 35,000  Level Kansas City Center
Fri 04:42:58 AM 36.5742 -98.3825 80° East 450 518 35,000  Level Kansas City Center
Fri 04:43:59 AM 36.5967 -98.2300 80° East 448 516 35,000  Level Kansas City Center
Fri 04:44:59 AM 36.6183 -98.0772 80° East 447 514 35,000  Level Kansas City Center
Fri 04:46:00 AM 36.6408 -97.9225 80° East 452 520 35,000  Level Kansas City Center
Fri 04:47:00 AM 36.6617 -97.7700 80° East 448 516 35,000  Level Kansas City Center
Fri 04:48:01 AM 36.6847 -97.6022 80° East 449 517 35,000  Level Kansas City Center
Fri 04:49:02 AM 36.7061 -97.4511 80° East 449 517 35,000  Level Kansas City Center
Fri 04:50:02 AM 36.7294 -97.2958 79° East 451 519 35,000  Level Kansas City Center
Fri 04:51:03 AM 36.7494 -97.1447 81° East 449 517 35,000  Level Kansas City Center
Fri 04:52:03 AM 36.7786 -96.9867 77° East 441 507 35,000  Level Kansas City Center
Fri 04:53:04 AM 36.8047 -96.8356 78° East 443 510 35,000  Level Kansas City Center
Fri 04:54:04 AM 36.8308 -96.6847 78° East 444 511 35,000  Level Kansas City Center
Fri 04:55:05 AM 36.8564 -96.5347 78° East 442 509 35,000  Level Kansas City Center
Fri 04:56:05 AM 36.8789 -96.3842 79° East 441 507 35,000  Level Kansas City Center
Fri 04:57:06 AM 36.9067 -96.2325 77° East 443 510 35,000  Level Kansas City Center
Fri 04:58:06 AM 36.9328 -96.0797 78° East 446 513 35,000  Level Kansas City Center
Fri 04:59:07 AM 36.9589 -95.9272 78° East 445 512 35,000  Level Kansas City Center
Fri 05:00:08 AM 36.9833 -95.7747 79° East 444 511 35,000  Level Kansas City Center
Fri 05:02:09 AM 37.0328 -95.4678 79° East 446 513 35,000  Level Kansas City Center
Fri 05:03:09 AM 37.0569 -95.3175 79° East 440 506 35,000  Level Kansas City Center
Fri 05:04:10 AM 37.0817 -95.1653 78° East 441 507 35,000  Level Kansas City Center
Fri 05:05:10 AM 37.1053 -95.0128 79° East 443 510 35,000  Level Kansas City Center
Fri 05:06:11 AM 37.1292 -94.8597 79° East 445 512 35,000  Level Kansas City Center
Fri 05:07:11 AM 37.1531 -94.7089 79° East 442 509 35,000  Level Kansas City Center
Fri 05:08:12 AM 37.1775 -94.5564 79° East 444 511 35,000  Level Kansas City Center
Fri 05:09:13 AM 37.2003 -94.4028 79° East 446 513 35,000  Level Kansas City Center
Fri 05:10:13 AM 37.2231 -94.2492 79° East 447 514 35,000  Level Kansas City Center
Fri 05:11:14 AM 37.2461 -94.0961 79° East 446 513 35,000  Level Kansas City Center
Fri 05:12:14 AM 37.2656 -93.9533 80° East 446 513 35,000  Level Kansas City Center
Fri 05:13:15 AM 37.2881 -93.8006 79° East 445 512 35,000  Level Kansas City Center
Fri 05:14:15 AM 37.3106 -93.6483 79° East 444 511 35,000  Level Kansas City Center
Fri 05:15:16 AM 37.3325 -93.4953 80° East 445 512 35,000  Level Kansas City Center
Fri 05:16:16 AM 37.3547 -93.3433 80° East 443 510 35,000  Level Kansas City Center
Fri 05:17:17 AM 37.3733 -93.1900 81° East 445 512 35,000  Level Kansas City Center
Fri 05:18:18 AM 37.3903 -93.0356 82° East 445 512 35,000  Level Kansas City Center
Fri 05:19:18 AM 37.4072 -92.8800 82° East 448 516 35,000  Level Kansas City Center
Fri 05:20:19 AM 37.4269 -92.6928 82° East 452 520 35,000  Level Kansas City Center
Fri 05:21:19 AM 37.4436 -92.5386 82° East 449 517 35,000  Level Kansas City Center
Fri 05:22:20 AM 37.4611 -92.3869 82° East 443 510 35,000  Level Kansas City Center
Fri 05:23:21 AM 37.4778 -92.2331 82° East 445 512 35,000  Level Kansas City Center
Fri 05:24:21 AM 37.4942 -92.0800 82° East 445 512 35,000  Level Kansas City Center
Fri 05:25:22 AM 37.5106 -91.9253 82° East 448 516 35,000  Level Kansas City Center
Fri 05:26:22 AM 37.5269 -91.7697 82° East 449 517 35,000  Level Kansas City Center
Fri 05:27:23 AM 37.5425 -91.6144 83° East 449 517 35,000  Level Kansas City Center
Fri 05:28:24 AM 37.5581 -91.4600 83° East 447 514 35,000  Level Kansas City Center
Fri 05:29:24 AM 37.5736 -91.3075 83° East 441 507 35,000  Level Kansas City Center
Fri 05:30:25 AM 37.5886 -91.1553 83° East 439 505 35,000  Level Kansas City Center
Fri 05:31:25 AM 37.6031 -91.0025 83° East 439 505 35,000  Level Kansas City Center
Fri 05:32:26 AM 37.6169 -90.8508 83° East 436 502 35,000  Level Kansas City Center
Fri 05:33:27 AM 37.6297 -90.7092 83° East 436 502 35,000  Level Kansas City Center
Fri 05:34:27 AM 37.6444 -90.5592 83° East 435 501 35,000  Level Kansas City Center
Fri 05:35:27 AM 37.6608 -90.3794 83° East 433 498 35,000  Level Kansas City Center
Fri 05:36:28 AM 37.6739 -90.2275 84° East 436 502 35,000  Level Kansas City Center
Fri 05:37:28 AM 37.6911 -90.0764 82° East 437 503 35,000  Level Kansas City Center
Fri 05:38:29 AM 37.7081 -89.9258 82° East 437 503 35,000  Level Kansas City Center
Fri 05:39:30 AM 37.7244 -89.7731 82° East 439 505 35,000  Level Kansas City Center
Fri 05:40:30 AM 37.7411 -89.6200 82° East 441 507 35,000  Level Kansas City Center
Fri 05:41:31 AM 37.7569 -89.4678 82° East 440 506 35,000  Level Kansas City Center
Fri 05:42:31 AM 37.7733 -89.3153 82° East 440 506 35,000  Level Kansas City Center
Fri 05:43:32 AM 37.7889 -89.1656 82° East 437 503 35,000  Level Kansas City Center
Fri 05:44:32 AM 37.8044 -89.0147 83° East 434 499 35,000  Level Kansas City Center
Fri 05:45:33 AM 37.8189 -88.8619 83° East 437 503 35,000  Level Kansas City Center
Fri 05:46:33 AM 37.8356 -88.7042 82° East 439 505 35,000  Level Kansas City Center
Fri 05:47:34 AM 37.8528 -88.5522 82° East 437 503 35,000  Level Kansas City Center
Fri 05:48:34 AM 37.8678 -88.3972 83° East 440 506 35,000  Level Kansas City Center
Fri 05:49:35 AM 37.8828 -88.2406 83° East 445 512 35,000  Level Kansas City Center
Fri 05:50:19 AM 37.8942 -88.1164 83° East 445 512 35,000  Level Indianapolis Center
Fri 05:51:22 AM 37.9086 -87.9597 83° East 447 514 35,000  Level Indianapolis Center
Fri 05:52:22 AM 37.9247 -87.8039 82° East 446 513 35,000  Level Indianapolis Center
Fri 05:53:23 AM 37.9383 -87.6469 84° East 448 516 35,000  Level Indianapolis Center
Fri 05:54:23 AM 37.9511 -87.4936 84° East 442 509 35,000  Level Indianapolis Center
Fri 05:55:24 AM 37.9650 -87.3378 84° East 444 511 35,000  Level Indianapolis Center
Fri 05:56:22 AM 37.9783 -87.1836 84° East 445 512 35,000  Level Indianapolis Center
Fri 05:57:23 AM 37.9914 -87.0306 84° East 441 507 35,000  Level Indianapolis Center
Fri 05:58:25 AM 38.0031 -86.8783 84° East 439 505 35,000  Level Indianapolis Center
Fri 05:59:25 AM 38.0158 -86.7264 84° East 436 502 35,000  Level Indianapolis Center
Fri 06:00:26 AM 38.0286 -86.5736 84° East 437 503 35,000  Level Indianapolis Center
Fri 06:01:26 AM 38.0400 -86.4219 85° East 434 499 35,000  Level Indianapolis Center
Fri 06:02:25 AM 38.0519 -86.2681 84° East 437 503 35,000  Level Indianapolis Center
Fri 06:03:28 AM 38.0644 -86.1169 84° East 433 498 35,000  Level Indianapolis Center
Fri 06:04:27 AM 38.0747 -85.9639 85° East 433 498 35,000  Level Indianapolis Center
Fri 06:05:28 AM 38.0875 -85.8103 84° East 436 502 35,000  Level Indianapolis Center
Fri 06:06:29 AM 38.0981 -85.6564 85° East 437 503 35,000  Level Indianapolis Center
Fri 06:07:29 AM 38.0914 -85.4978 93° East 452 520 35,000  Level Indianapolis Center
Fri 06:08:31 AM 38.0658 -85.3375 101° East 461 531 35,000 700 Level Indianapolis Center
Fri 06:09:29 AM 38.0383 -85.1561 101° East 452 520 36,400 1,017 Climbing Indianapolis Center
Fri 06:10:29 AM 38.0133 -84.9978 101° East 454 522 37,000 298 Climbing Indianapolis Center
Fri 06:11:30 AM 37.9886 -84.8361 101° East 465 535 37,000  Level Indianapolis Center
Fri 06:12:30 AM 37.9611 -84.6725 102° East 471 542 37,000  Level Indianapolis Center
Fri 06:13:33 AM 37.9344 -84.5106 102° East 469 540 37,000  Level Indianapolis Center
Fri 06:14:33 AM 37.9075 -84.3506 102° East 464 534 37,000  Level Indianapolis Center
Fri 06:15:33 AM 37.8811 -84.1892 102° East 467 537 37,000  Level Indianapolis Center
Fri 06:16:35 AM 37.8531 -84.0219 102° East 480 552 37,000  Level Indianapolis Center
Fri 06:17:33 AM 37.8253 -83.8564 102° East 481 554 37,000  Level Indianapolis Center
Fri 06:19:00 AM 37.8707 -83.6414 75° East  Level FlightAware Approximate
Fri 06:19:37 AM 37.7683 -83.5244 75° East 481 554 37,000  Level Indianapolis Center
Fri 06:20:36 AM 37.7544 -83.3536 96° East 495 570 37,000  Level Indianapolis Center
Fri 06:21:38 AM 37.7561 -83.1850 89° East 483 556 37,000  Level Indianapolis Center
Fri 06:22:38 AM 37.7594 -83.0128 89° East 488 562 37,000  Level Indianapolis Center
Fri 06:23:39 AM 37.7625 -82.8453 89° East 480 552 37,000  Level Indianapolis Center
Fri 06:24:40 AM 37.7658 -82.6806 88° East 472 543 37,000  Level Indianapolis Center
Fri 06:25:40 AM 37.7681 -82.5111 89° East 479 551 37,000  Level Indianapolis Center
Fri 06:26:41 AM 37.7706 -82.3408 89° East 483 556 37,000  Level Indianapolis Center
Fri 06:27:39 AM 37.7728 -82.1714 89° East 482 555 37,000  Level Indianapolis Center
Fri 06:28:42 AM 37.7753 -82.0022 89° East 481 554 37,000  Level Indianapolis Center
Fri 06:29:42 AM 37.7772 -81.8322 89° East 483 556 37,000  Level Indianapolis Center
Fri 06:30:43 AM 37.7778 -81.6597 90° East 488 562 37,000  Level Indianapolis Center
Fri 06:31:44 AM 37.7794 -81.4781 89° East 491 565 37,000 50 Level Indianapolis Center
Fri 06:32:44 AM 37.7789 -81.3114 90° East 489 563 37,100  Climbing Indianapolis Center
Fri 06:33:46 AM 37.7908 -81.1456 85° East 488 562 37,000 -49 Descending Indianapolis Center
Fri 06:34:46 AM 37.8372 -80.9611 72° East 499 574 37,000  Level Indianapolis Center
Fri 06:35:47 AM 37.8950 -80.8014 65° Northeast 500 575 37,000 -49 Level Indianapolis Center
Fri 06:36:48 AM 37.9508 -80.6400 66° East 503 579 36,900 -450 Descending Indianapolis Center
Fri 06:37:47 AM 38.0086 -80.4783 66° East 505 581 36,100 -885 Descending Indianapolis Center
Fri 06:38:50 AM 38.0650 -80.3192 66° East 509 586 35,100 -992 Descending Indianapolis Center
Fri 06:39:48 AM 38.1244 -80.1506 66° East 511 588 34,100 -1,200 Descending Indianapolis Center
Fri 06:40:50 AM 38.1892 -79.9708 65° Northeast 499 574 32,700 -1,839 Descending Indianapolis Center
Fri 06:41:52 AM 38.2431 -79.8158 66° East 492 566 30,300 -1,983 Descending Indianapolis Center
Fri 06:42:51 AM 38.2975 -79.6589 66° East 494 568 28,700 -1,279 Descending Indianapolis Center
Fri 06:43:54 AM 38.3500 -79.5050 66° East 487 560 27,700 -836 Descending Indianapolis Center
Fri 06:44:53 AM 38.4008 -79.3561 66° East 474 545 27,000 -906 Descending Indianapolis Center
Fri 06:46:13 AM 38.4544 -79.1444 72° East 467 537 25,600 -1,217 Descending Washington Center
Fri 06:47:11 AM 38.4794 -78.9944 78° East 454 522 24,200 -1,450 Descending Washington Center
Fri 06:48:13 AM 38.5050 -78.8258 79° East 440 506 22,700 -1,426 Descending Washington Center
Fri 06:49:13 AM 38.5275 -78.6808 79° East 430 495 21,300 -1,373 Descending Washington Center
Fri 06:50:11 AM 38.5497 -78.5436 78° East 415 478 20,000 -1,361 Descending Washington Center
Fri 06:51:12 AM 38.5719 -78.4039 78° East 403 464 18,600 -1,279 Descending Washington Center
Fri 06:52:13 AM 38.5939 -78.2719 78° East 390 449 17,400 -1,322 Descending Washington Center
Fri 06:53:10 AM 38.6278 -78.1508 70° East 377 434 16,000 -1,322 Descending Washington Center
Fri 06:54:11 AM 38.6656 -78.0325 68° East 362 417 14,800 -1,131 Descending Washington Center
Fri 06:55:12 AM 38.6989 -77.9297 67° East 349 402 13,700 -1,131 Descending Washington Center
Fri 06:56:13 AM 38.7342 -77.8297 66° East 331 381 12,500 -1,109 Descending Washington Center
Fri 06:57:11 AM 38.7900 -77.7464 49° Northeast 310 357 11,500 -1,059 Descending Washington Center
Fri 06:58:12 AM 38.8417 -77.6464 56° Northeast 299 344 10,400 -1,171 Descending Washington Center
Fri 06:59:14 AM 38.8833 -77.5333 65° Northeast 294 338 9,100 -1,180 Descending Potomac TRACON
Fri 07:00:14 AM 38.9000 -77.4500 76° East 280 322 8,000 -1,100 Descending Potomac TRACON
Fri 07:01:14 AM 38.8667 -77.3667 117° Southeast 264 304 6,900 -1,043 Descending Potomac TRACON
Fri 07:02:09 AM 38.8333 -77.2833 117° Southeast 267 307 6,000 -470 Descending Potomac TRACON
Fri 07:03:09 AM 38.8000 -77.2000 117° Southeast 265 305 6,000 -50 Level Potomac TRACON
Fri 07:04:09 AM 38.7667 -77.1167 117° Southeast 267 307 5,900 -684 Descending Potomac TRACON
Fri 07:05:03 AM 38.7000 -77.1000 169° South 284 327 4,700 -1,000 Descending Potomac TRACON
Fri 07:06:03 AM 38.6167 -77.1000 180° South 268 308 4,000 -1,000 Descending Potomac TRACON
Fri 07:06:57 AM 38.6000 -77.0500 113° Southeast 211 243 2,800 -789 Descending Potomac TRACON
Fri 07:07:57 AM 38.6333 -77.0167 38° Northeast 173 199 2,500 -150 Descending Potomac TRACON
Fri 07:08:57 AM 38.6833 -77.0167 360° North 166 191 2,500  Level Potomac TRACON

Login

Don't have an account? Register now (free) for customized features, flight alerts, and more!